Terminal Aerodrome Forecast
Issued by NWS New Orleans/Baton Rouge, LA

Home | Current Version | Previous Version | Text Only | Print | Product List | Glossary On
Versions: 1 2 3 4 5 6 7 8 9 10 11 12 13 14 15 16 17 18 19 20
000
FTUS44 KLIX 201743
TAFBTR
TAF
KBTR 201743Z 2018/2118 22008KT P6SM SCT070
     FM210000 17005KT P6SM SCT200
     FM210600 15005KT 2SM SHRA BKN020
      TEMPO 2107/2110 24025G45KT 1/2SM +TSRA BKN012CB
     FM211200 21006KT P6SM OVC003 PROB30 2112/2117 SHRA=

USA.gov is the U.S. government's official web portal to all federal, state and local government web resources and services.